createdAt,value
2018-07-13T00:00:16.156Z,22.44
2018-07-13T00:01:16.188Z,22.44
2018-07-13T00:02:16.408Z,22.44
2018-07-13T00:03:26.769Z,22.43
2018-07-13T00:04:16.283Z,22.43
2018-07-13T00:05:16.184Z,22.44
2018-07-13T00:06:16.296Z,22.43
2018-07-13T00:07:16.390Z,22.43
2018-07-13T00:08:16.295Z,22.43
2018-07-13T00:09:16.419Z,22.43
2018-07-13T00:10:16.181Z,22.44
2018-07-13T00:11:16.174Z,22.43
2018-07-13T00:12:16.144Z,22.44
2018-07-13T00:13:16.263Z,22.42
2018-07-13T00:14:16.495Z,22.43
2018-07-13T00:15:16.255Z,22.44
2018-07-13T00:16:16.153Z,22.43
2018-07-13T00:17:16.359Z,22.43
2018-07-13T00:18:16.161Z,22.43
2018-07-13T00:19:16.447Z,22.43
2018-07-13T00:20:16.253Z,22.43
2018-07-13T00:21:16.205Z,22.43
2018-07-13T00:22:16.241Z,22.43
2018-07-13T00:23:16.331Z,22.43
2018-07-13T00:24:16.308Z,22.42
2018-07-13T00:25:16.316Z,22.42
2018-07-13T00:26:16.283Z,22.43
2018-07-13T00:27:16.379Z,22.43
2018-07-13T00:28:16.298Z,22.42
2018-07-13T00:29:16.376Z,22.42
2018-07-13T00:30:16.138Z,22.43
2018-07-13T00:31:16.368Z,22.42
2018-07-13T00:32:16.258Z,22.42
2018-07-13T00:33:16.293Z,22.42
2018-07-13T00:34:16.398Z,22.42
2018-07-13T00:35:16.193Z,22.43
2018-07-13T00:36:16.229Z,22.42
2018-07-13T00:37:16.266Z,22.42
2018-07-13T00:38:16.247Z,22.43
2018-07-13T00:39:16.076Z,22.42
2018-07-13T00:40:16.335Z,22.42
2018-07-13T00:41:16.265Z,22.41
2018-07-13T00:42:16.245Z,22.42
2018-07-13T00:43:16.128Z,22.42
2018-07-13T00:44:16.244Z,22.42
2018-07-13T00:45:16.294Z,22.42
2018-07-13T00:46:16.266Z,22.41
2018-07-13T00:47:16.319Z,22.42
2018-07-13T00:48:16.142Z,22.41
2018-07-13T00:49:16.281Z,22.42
2018-07-13T00:50:16.320Z,22.41
2018-07-13T00:51:16.380Z,22.41
2018-07-13T00:52:16.411Z,22.41
2018-07-13T00:53:16.195Z,22.41
2018-07-13T00:54:16.451Z,22.41
2018-07-13T00:55:16.170Z,22.42
2018-07-13T00:56:16.261Z,22.41
2018-07-13T00:57:16.074Z,22.42
2018-07-13T00:58:16.199Z,22.41
2018-07-13T00:59:16.279Z,22.41
2018-07-13T01:00:16.407Z,22.41
2018-07-13T01:01:16.217Z,22.4
2018-07-13T01:02:16.464Z,22.41
2018-07-13T01:03:16.151Z,22.41
2018-07-13T01:04:16.429Z,22.41
2018-07-13T01:05:16.220Z,22.41
2018-07-13T01:06:16.430Z,22.41
2018-07-13T01:07:16.236Z,22.41
2018-07-13T01:08:16.132Z,22.42
2018-07-13T01:09:16.621Z,22.4
2018-07-13T01:10:16.574Z,22.41
2018-07-13T01:11:16.144Z,22.4
2018-07-13T01:12:16.169Z,22.4
2018-07-13T01:13:16.350Z,22.4
2018-07-13T01:14:16.298Z,22.4
2018-07-13T01:15:16.333Z,22.42
2018-07-13T01:16:16.372Z,22.4
2018-07-13T01:17:26.343Z,22.41
2018-07-13T01:18:16.169Z,22.4
2018-07-13T01:19:16.288Z,22.4
2018-07-13T01:20:16.338Z,22.4
2018-07-13T01:21:16.142Z,22.41
2018-07-13T01:22:16.363Z,22.4
2018-07-13T01:23:16.316Z,22.4
2018-07-13T01:24:16.428Z,22.4
2018-07-13T01:25:16.380Z,22.4
2018-07-13T01:26:16.198Z,22.41
2018-07-13T01:27:16.100Z,22.4
2018-07-13T01:28:16.200Z,22.39
2018-07-13T01:29:16.378Z,22.4
2018-07-13T01:30:16.227Z,22.4
2018-07-13T01:31:16.388Z,22.39
2018-07-13T01:32:16.200Z,22.4
2018-07-13T01:33:16.247Z,22.4
2018-07-13T01:34:16.311Z,22.4
2018-07-13T01:35:16.195Z,22.4
2018-07-13T01:36:16.327Z,22.39
2018-07-13T01:37:16.334Z,22.39
2018-07-13T01:38:16.193Z,22.4
2018-07-13T01:39:16.289Z,22.39
2018-07-13T01:40:16.225Z,22.39
2018-07-13T01:41:16.321Z,22.4
2018-07-13T01:42:16.363Z,22.4
2018-07-13T01:43:16.168Z,22.39
2018-07-13T01:44:16.165Z,22.39
2018-07-13T01:45:16.195Z,22.39
2018-07-13T01:46:16.150Z,22.39
2018-07-13T01:47:16.277Z,22.39
2018-07-13T01:48:16.338Z,22.4
2018-07-13T01:49:16.111Z,22.4
2018-07-13T01:50:16.226Z,22.39
2018-07-13T01:51:16.344Z,22.4
2018-07-13T01:52:16.524Z,22.4
2018-07-13T01:53:26.214Z,22.39
2018-07-13T01:54:16.229Z,22.39
2018-07-13T01:55:16.147Z,22.39
2018-07-13T01:56:16.244Z,22.39
2018-07-13T01:57:16.322Z,22.39
2018-07-13T01:58:16.456Z,22.37
2018-07-13T01:59:16.313Z,22.39
2018-07-13T02:00:16.275Z,22.39
2018-07-13T02:01:16.110Z,22.38
2018-07-13T02:02:16.203Z,22.38
2018-07-13T02:03:16.306Z,22.38
2018-07-13T02:04:16.162Z,22.38
2018-07-13T02:05:16.105Z,22.39
2018-07-13T02:06:16.124Z,22.39
2018-07-13T02:07:16.319Z,22.37
2018-07-13T02:08:16.326Z,22.39
2018-07-13T02:09:16.198Z,22.38
2018-07-13T02:10:16.253Z,22.38
2018-07-13T02:11:48.236Z,22.39
2018-07-13T02:12:16.288Z,22.38
2018-07-13T02:13:16.289Z,22.39
2018-07-13T02:14:16.362Z,22.37
2018-07-13T02:15:16.335Z,22.38
2018-07-13T02:16:16.319Z,22.38
2018-07-13T02:17:16.309Z,22.38
2018-07-13T02:18:16.067Z,22.38
2018-07-13T02:19:16.175Z,22.37
2018-07-13T02:20:16.309Z,22.38
2018-07-13T02:21:16.194Z,22.38
2018-07-13T02:22:16.214Z,22.37
2018-07-13T02:23:16.441Z,22.37
2018-07-13T02:24:16.281Z,22.38
2018-07-13T02:25:16.300Z,22.38
2018-07-13T02:26:16.344Z,22.37
2018-07-13T02:27:16.151Z,22.37
2018-07-13T02:28:16.326Z,22.38
2018-07-13T02:29:16.412Z,22.37
2018-07-13T02:30:16.236Z,22.38
2018-07-13T02:31:16.311Z,22.37
2018-07-13T02:32:16.437Z,22.37
2018-07-13T02:33:16.331Z,22.38
2018-07-13T02:34:16.240Z,22.37
2018-07-13T02:35:16.150Z,22.38
2018-07-13T02:36:16.401Z,22.38
2018-07-13T02:37:16.208Z,22.37
2018-07-13T02:38:16.162Z,22.38
2018-07-13T02:39:16.364Z,22.37
2018-07-13T02:40:16.304Z,22.38
2018-07-13T02:41:16.185Z,22.38
2018-07-13T02:42:16.151Z,22.37
2018-07-13T02:43:16.240Z,22.37
2018-07-13T02:44:16.250Z,22.37
2018-07-13T02:45:16.272Z,22.38
2018-07-13T02:46:16.295Z,22.37
2018-07-13T02:47:16.126Z,22.37
2018-07-13T02:48:16.341Z,22.37
2018-07-13T02:49:16.377Z,22.37
2018-07-13T02:50:16.183Z,22.37
2018-07-13T02:51:16.160Z,22.37
2018-07-13T02:52:16.302Z,22.37
2018-07-13T02:53:16.292Z,22.36
2018-07-13T02:54:16.224Z,22.37
2018-07-13T02:55:16.091Z,22.37
2018-07-13T02:56:16.122Z,22.37
2018-07-13T02:57:16.284Z,22.37
2018-07-13T02:58:16.243Z,22.37
2018-07-13T02:59:16.469Z,22.37
2018-07-13T03:00:16.323Z,22.36
2018-07-13T03:01:16.190Z,22.37
2018-07-13T03:02:16.275Z,22.37
2018-07-13T03:03:16.241Z,22.36
2018-07-13T03:04:16.184Z,22.37
2018-07-13T03:05:16.392Z,22.36
2018-07-13T03:06:16.100Z,22.36
2018-07-13T03:07:16.080Z,22.36
2018-07-13T03:08:16.225Z,22.36
2018-07-13T03:09:16.320Z,22.36
2018-07-13T03:10:16.251Z,22.36
2018-07-13T03:11:16.181Z,22.36
2018-07-13T03:12:16.242Z,22.36
2018-07-13T03:13:16.290Z,22.36
2018-07-13T03:14:16.177Z,22.36
2018-07-13T03:15:16.274Z,22.37
2018-07-13T03:16:16.301Z,22.35
2018-07-13T03:17:16.313Z,22.35
2018-07-13T03:18:16.365Z,22.36
2018-07-13T03:19:16.314Z,22.36
2018-07-13T03:20:16.194Z,22.36
2018-07-13T03:21:16.229Z,22.36
2018-07-13T03:22:16.361Z,22.35
2018-07-13T03:23:16.398Z,22.36
2018-07-13T03:24:16.309Z,22.35
2018-07-13T03:25:16.096Z,22.35
2018-07-13T03:26:16.333Z,22.36
2018-07-13T03:27:16.144Z,22.35
2018-07-13T03:28:16.248Z,22.34
2018-07-13T03:29:16.441Z,22.35
2018-07-13T03:30:16.332Z,22.35
2018-07-13T03:31:16.263Z,22.34
2018-07-13T03:32:16.346Z,22.35
2018-07-13T03:33:16.451Z,22.36
2018-07-13T03:34:16.189Z,22.35
2018-07-13T03:35:16.572Z,22.35
2018-07-13T03:36:16.121Z,22.36
2018-07-13T03:37:16.176Z,22.34
2018-07-13T03:38:16.239Z,22.35
2018-07-13T03:39:16.286Z,22.35
2018-07-13T03:40:16.106Z,22.35
2018-07-13T03:41:16.231Z,22.35
2018-07-13T03:42:16.146Z,22.35
2018-07-13T03:43:16.060Z,22.34
2018-07-13T03:44:16.218Z,22.34
2018-07-13T03:45:16.153Z,22.35
2018-07-13T03:46:16.446Z,22.35
2018-07-13T03:47:16.300Z,22.35
2018-07-13T03:48:16.364Z,22.35
2018-07-13T03:49:16.268Z,22.35
2018-07-13T03:50:16.347Z,22.34
2018-07-13T03:51:16.260Z,22.35
2018-07-13T03:52:16.265Z,22.34
2018-07-13T03:53:16.222Z,22.34
2018-07-13T03:54:16.447Z,22.35
2018-07-13T03:55:16.558Z,22.34
2018-07-13T03:56:16.343Z,22.34
2018-07-13T03:57:16.278Z,22.34
2018-07-13T03:58:16.215Z,22.34
2018-07-13T03:59:16.462Z,22.34
2018-07-13T04:00:16.327Z,22.35
2018-07-13T04:01:16.236Z,22.34
2018-07-13T04:02:16.177Z,22.35
2018-07-13T04:03:16.141Z,22.34
2018-07-13T04:04:16.217Z,22.34
2018-07-13T04:05:16.246Z,22.34
2018-07-13T04:06:16.378Z,22.34
2018-07-13T04:07:16.328Z,22.33
2018-07-13T04:08:16.327Z,22.34
2018-07-13T04:09:16.153Z,22.35
2018-07-13T04:10:16.110Z,22.33
2018-07-13T04:11:16.323Z,22.33
2018-07-13T04:12:16.092Z,22.34
2018-07-13T04:13:16.320Z,22.34
2018-07-13T04:14:16.372Z,22.33
2018-07-13T04:15:16.146Z,22.34
2018-07-13T04:16:16.198Z,22.34
2018-07-13T04:17:16.225Z,22.33
2018-07-13T04:18:16.306Z,22.34
2018-07-13T04:19:16.298Z,22.34
2018-07-13T04:20:16.278Z,22.34
2018-07-13T04:21:16.052Z,22.34
2018-07-13T04:22:16.428Z,22.33
2018-07-13T04:23:16.327Z,22.34
2018-07-13T04:24:16.261Z,22.34
2018-07-13T04:25:16.287Z,22.33
2018-07-13T04:26:16.295Z,22.33
2018-07-13T04:27:16.262Z,22.33
2018-07-13T04:28:16.265Z,22.33
2018-07-13T04:29:16.171Z,22.34
2018-07-13T04:30:16.089Z,22.33
2018-07-13T04:31:16.201Z,22.33
2018-07-13T04:32:16.090Z,22.34
2018-07-13T04:33:16.118Z,22.33
2018-07-13T04:34:16.250Z,22.32
2018-07-13T04:35:16.367Z,22.33
2018-07-13T04:36:16.301Z,22.34
2018-07-13T04:37:16.236Z,22.33
2018-07-13T04:38:16.429Z,22.33
2018-07-13T04:39:16.096Z,22.32
2018-07-13T04:40:16.217Z,22.32
2018-07-13T04:41:16.278Z,22.33
2018-07-13T04:42:16.338Z,22.33
2018-07-13T04:43:16.197Z,22.33
2018-07-13T04:44:16.169Z,22.33
2018-07-13T04:45:16.145Z,22.33
2018-07-13T04:46:16.321Z,22.33
2018-07-13T04:47:16.197Z,22.33
2018-07-13T04:48:16.135Z,22.33
2018-07-13T04:49:16.240Z,22.32
2018-07-13T04:50:16.419Z,22.33
2018-07-13T04:51:16.116Z,22.31
2018-07-13T04:52:16.095Z,22.33
2018-07-13T04:53:16.376Z,22.32
2018-07-13T04:54:16.228Z,22.32
2018-07-13T04:55:16.527Z,22.32
2018-07-13T04:56:16.207Z,22.33
2018-07-13T04:57:16.258Z,22.33
2018-07-13T04:58:16.127Z,22.32
2018-07-13T04:59:16.309Z,22.32
2018-07-13T05:00:16.372Z,22.32
2018-07-13T05:01:16.353Z,22.33
2018-07-13T05:02:16.168Z,22.32
2018-07-13T05:03:16.344Z,22.32
2018-07-13T05:04:16.115Z,22.32
2018-07-13T05:05:16.145Z,22.32
2018-07-13T05:06:16.196Z,22.33
2018-07-13T05:07:16.243Z,22.32
2018-07-13T05:08:16.202Z,22.33
2018-07-13T05:09:16.231Z,22.33
2018-07-13T05:10:16.281Z,22.33
2018-07-13T05:11:16.382Z,22.32
2018-07-13T05:12:16.329Z,22.32
2018-07-13T05:13:16.291Z,22.33
2018-07-13T05:14:16.278Z,22.32
2018-07-13T05:15:16.074Z,22.32
2018-07-13T05:16:16.183Z,22.32
2018-07-13T05:17:16.361Z,22.32
2018-07-13T05:18:16.266Z,22.32
2018-07-13T05:19:16.317Z,22.32
2018-07-13T05:20:16.184Z,22.33
2018-07-13T05:21:16.303Z,22.33
2018-07-13T05:22:16.162Z,22.31
2018-07-13T05:23:16.285Z,22.32
2018-07-13T05:24:16.085Z,22.32
2018-07-13T05:25:16.151Z,22.32
2018-07-13T05:26:16.177Z,22.33
2018-07-13T05:27:16.256Z,22.33
2018-07-13T05:28:16.248Z,22.32
2018-07-13T05:29:16.191Z,22.32
2018-07-13T05:30:16.182Z,22.32
2018-07-13T05:31:16.275Z,22.31
2018-07-13T05:32:16.253Z,22.33
2018-07-13T05:33:16.039Z,22.32
2018-07-13T05:34:16.193Z,22.33
2018-07-13T05:35:16.232Z,22.31
2018-07-13T05:36:16.241Z,22.32
2018-07-13T05:37:16.293Z,22.32
2018-07-13T05:38:16.130Z,22.33
2018-07-13T05:39:16.321Z,22.32
2018-07-13T05:40:16.038Z,22.32
2018-07-13T05:41:16.050Z,22.32
2018-07-13T05:42:16.088Z,22.33
2018-07-13T05:43:16.064Z,22.31
2018-07-13T05:44:16.381Z,22.32
2018-07-13T05:45:16.134Z,22.33
2018-07-13T05:46:16.130Z,22.32
2018-07-13T05:47:16.205Z,22.32
2018-07-13T05:48:16.188Z,22.32
2018-07-13T05:49:16.268Z,22.32
2018-07-13T05:50:16.275Z,22.32
2018-07-13T05:51:16.254Z,22.32
2018-07-13T05:52:16.063Z,22.32
2018-07-13T05:53:16.277Z,22.32
2018-07-13T05:54:16.145Z,22.32
2018-07-13T05:55:16.230Z,22.31
2018-07-13T05:56:16.314Z,22.33
2018-07-13T05:57:16.201Z,22.31
2018-07-13T05:58:16.218Z,22.32
2018-07-13T05:59:16.173Z,22.31
2018-07-13T06:00:16.240Z,22.31
2018-07-13T06:01:16.279Z,22.32
2018-07-13T06:02:16.311Z,22.32
2018-07-13T06:03:16.106Z,22.31
2018-07-13T06:04:16.450Z,22.31
2018-07-13T06:05:16.417Z,22.32
2018-07-13T06:06:16.319Z,22.32
2018-07-13T06:07:16.161Z,22.31
2018-07-13T06:08:16.184Z,22.32
2018-07-13T06:09:16.239Z,22.32
2018-07-13T06:10:16.108Z,22.31
2018-07-13T06:11:16.304Z,22.31
2018-07-13T06:12:16.290Z,22.32
2018-07-13T06:13:16.203Z,22.31
2018-07-13T06:14:16.315Z,22.31
2018-07-13T06:15:16.236Z,22.32
2018-07-13T06:16:16.131Z,22.31
2018-07-13T06:17:16.215Z,22.31
2018-07-13T06:18:16.307Z,22.31
2018-07-13T06:19:16.315Z,22.31
2018-07-13T06:20:16.450Z,22.32
2018-07-13T06:21:16.339Z,22.32
2018-07-13T06:22:16.117Z,22.31
2018-07-13T06:23:16.289Z,22.31
2018-07-13T06:24:16.236Z,22.31
2018-07-13T06:25:16.383Z,22.3
2018-07-13T06:26:16.190Z,22.32
2018-07-13T06:27:16.113Z,22.31
2018-07-13T06:28:16.374Z,22.31
2018-07-13T06:29:16.197Z,22.3
2018-07-13T06:30:16.198Z,22.31
2018-07-13T06:31:16.109Z,22.31
2018-07-13T06:32:16.321Z,22.3
2018-07-13T06:33:16.287Z,22.31
2018-07-13T06:34:16.170Z,22.3
2018-07-13T06:35:16.460Z,22.32
2018-07-13T06:36:16.081Z,22.32
2018-07-13T06:37:16.342Z,22.31
2018-07-13T06:38:16.291Z,22.32
2018-07-13T06:39:16.141Z,22.3
2018-07-13T06:40:16.104Z,22.3
2018-07-13T06:41:16.233Z,22.31
2018-07-13T06:42:16.129Z,22.31
2018-07-13T06:43:16.415Z,22.3
2018-07-13T06:44:16.309Z,22.3
2018-07-13T06:45:15.991Z,22.31
2018-07-13T06:46:16.352Z,22.31
2018-07-13T06:47:16.261Z,22.31
2018-07-13T06:48:16.258Z,22.3
2018-07-13T06:49:16.262Z,22.29
2018-07-13T06:50:16.309Z,22.31
2018-07-13T06:51:16.382Z,22.31
2018-07-13T06:52:16.070Z,22.3
2018-07-13T06:53:16.278Z,22.29
2018-07-13T06:54:16.023Z,22.3
2018-07-13T06:55:16.318Z,22.3
2018-07-13T06:56:16.254Z,22.31
2018-07-13T06:57:16.499Z,22.31
2018-07-13T06:58:16.096Z,22.3
2018-07-13T06:59:16.093Z,22.3
2018-07-13T07:00:16.160Z,22.31
2018-07-13T07:01:16.229Z,22.3
2018-07-13T07:02:16.300Z,22.31
2018-07-13T07:03:16.105Z,22.3
2018-07-13T07:04:16.139Z,22.31
2018-07-13T07:05:16.281Z,22.3
2018-07-13T07:06:16.155Z,22.31
2018-07-13T07:07:16.115Z,22.3
2018-07-13T07:08:16.047Z,22.31
2018-07-13T07:09:16.253Z,22.3
2018-07-13T07:10:16.100Z,22.29
2018-07-13T07:11:16.090Z,22.3
2018-07-13T07:12:16.120Z,22.31
2018-07-13T07:13:16.286Z,22.3
2018-07-13T07:14:16.279Z,22.31
2018-07-13T07:15:16.154Z,22.3
2018-07-13T07:16:16.192Z,22.3
2018-07-13T07:17:16.158Z,22.29
2018-07-13T07:18:16.379Z,22.3
2018-07-13T07:19:16.058Z,22.29
2018-07-13T07:20:16.158Z,22.3
2018-07-13T07:21:48.047Z,22.3
2018-07-13T07:22:16.184Z,22.29
2018-07-13T07:23:16.172Z,22.3
2018-07-13T07:24:16.108Z,22.3
2018-07-13T07:25:16.183Z,22.3
2018-07-13T07:26:16.190Z,22.3
2018-07-13T07:27:16.169Z,22.3
2018-07-13T07:28:16.020Z,22.3
2018-07-13T07:29:16.179Z,22.3
2018-07-13T07:30:16.078Z,22.29
2018-07-13T07:31:16.295Z,22.3
2018-07-13T07:32:16.245Z,22.3
2018-07-13T07:33:16.080Z,22.29
2018-07-13T07:34:16.275Z,22.3
2018-07-13T07:35:16.299Z,22.3
2018-07-13T07:36:16.374Z,22.3
2018-07-13T07:37:16.140Z,22.29
2018-07-13T07:38:16.061Z,22.29
2018-07-13T07:39:16.253Z,22.29
2018-07-13T07:40:16.041Z,22.29
2018-07-13T07:41:16.070Z,22.29
2018-07-13T07:42:16.115Z,22.29
2018-07-13T07:43:16.098Z,22.29
2018-07-13T07:44:16.246Z,22.29
2018-07-13T07:45:16.271Z,22.29
2018-07-13T07:46:16.308Z,22.29
2018-07-13T07:47:16.195Z,22.29
2018-07-13T07:48:16.212Z,22.29
2018-07-13T07:49:16.313Z,22.29
2018-07-13T07:50:16.272Z,22.3
2018-07-13T07:51:16.268Z,22.29
2018-07-13T07:52:16.239Z,22.29
2018-07-13T07:53:16.098Z,22.3
2018-07-13T07:54:16.332Z,22.3
2018-07-13T07:55:16.030Z,22.29
2018-07-13T07:56:16.183Z,22.3
2018-07-13T07:57:16.368Z,22.29
2018-07-13T07:58:16.259Z,22.29
2018-07-13T07:59:16.303Z,22.3
2018-07-13T08:00:16.216Z,22.29
2018-07-13T08:01:16.425Z,22.29
2018-07-13T08:02:16.140Z,22.3
2018-07-13T08:03:16.146Z,22.28
2018-07-13T08:04:16.116Z,22.29
2018-07-13T08:05:16.284Z,22.3
2018-07-13T08:06:16.311Z,22.29
2018-07-13T08:07:16.454Z,22.28
2018-07-13T08:08:16.237Z,22.29
2018-07-13T08:09:16.380Z,22.29
2018-07-13T08:10:16.109Z,22.29
2018-07-13T08:11:16.326Z,22.3
2018-07-13T08:12:16.083Z,22.29
2018-07-13T08:13:15.985Z,22.29
2018-07-13T08:14:16.643Z,22.29
2018-07-13T08:15:16.281Z,22.31
2018-07-13T08:16:16.260Z,22.29
2018-07-13T08:17:16.032Z,22.29
2018-07-13T08:18:16.137Z,22.28
2018-07-13T08:19:16.250Z,22.28
2018-07-13T08:20:16.260Z,22.29
2018-07-13T08:21:16.144Z,22.3
2018-07-13T08:22:16.161Z,22.29
2018-07-13T08:23:16.056Z,22.29
2018-07-13T08:24:16.270Z,22.28
2018-07-13T08:25:16.106Z,22.29
2018-07-13T08:26:16.141Z,22.3
2018-07-13T08:27:16.355Z,22.3
2018-07-13T08:28:16.160Z,22.29
2018-07-13T08:29:16.125Z,22.29
2018-07-13T08:30:16.203Z,22.29
2018-07-13T08:31:48.010Z,22.29
2018-07-13T08:32:16.128Z,22.29
2018-07-13T08:33:16.256Z,22.3
2018-07-13T08:34:16.244Z,22.29
2018-07-13T08:35:16.150Z,22.3
2018-07-13T08:36:16.166Z,22.29
2018-07-13T08:37:16.274Z,22.29
2018-07-13T08:38:16.036Z,22.3
2018-07-13T08:39:15.983Z,22.29
2018-07-13T08:40:16.103Z,22.29
2018-07-13T08:41:16.299Z,22.29
2018-07-13T08:42:16.130Z,22.28
2018-07-13T08:43:16.171Z,22.29
2018-07-13T08:44:16.134Z,22.3
2018-07-13T08:45:16.162Z,22.29
2018-07-13T08:46:16.101Z,22.29
2018-07-13T08:47:16.228Z,22.3
2018-07-13T08:48:16.241Z,22.29
2018-07-13T08:49:16.039Z,22.29
2018-07-13T08:50:16.339Z,22.29
2018-07-13T08:51:16.157Z,22.29
2018-07-13T08:52:16.140Z,22.29
2018-07-13T08:53:16.123Z,22.29
2018-07-13T08:54:16.206Z,22.3
2018-07-13T08:55:16.255Z,22.3
2018-07-13T08:56:16.349Z,22.29
2018-07-13T08:57:16.113Z,22.3
2018-07-13T08:58:16.034Z,22.29
2018-07-13T08:59:16.352Z,22.29
2018-07-13T09:00:16.240Z,22.29
2018-07-13T09:01:16.014Z,22.29
2018-07-13T09:02:16.201Z,22.3
2018-07-13T09:03:16.213Z,22.29
2018-07-13T09:04:16.363Z,22.29
2018-07-13T09:05:16.393Z,22.29
2018-07-13T09:06:16.214Z,22.31
2018-07-13T09:07:16.108Z,22.29
2018-07-13T09:08:16.278Z,22.29
2018-07-13T09:09:16.302Z,22.29
2018-07-13T09:10:16.097Z,22.28
2018-07-13T09:11:16.024Z,22.29
2018-07-13T09:12:16.034Z,22.28
2018-07-13T09:13:16.329Z,22.3
2018-07-13T09:14:16.156Z,22.3
2018-07-13T09:15:16.342Z,22.3
2018-07-13T09:16:16.049Z,22.29
2018-07-13T09:17:16.046Z,22.29
2018-07-13T09:18:16.303Z,22.3
2018-07-13T09:19:16.183Z,22.28
2018-07-13T09:20:16.223Z,22.28
2018-07-13T09:21:16.254Z,22.29
2018-07-13T09:22:16.076Z,22.3
2018-07-13T09:23:16.176Z,22.29
2018-07-13T09:24:16.221Z,22.3
2018-07-13T09:25:15.992Z,22.29
2018-07-13T09:26:16.143Z,22.29
2018-07-13T09:27:16.201Z,22.31
2018-07-13T09:28:16.040Z,22.28
2018-07-13T09:29:16.038Z,22.3
2018-07-13T09:30:16.048Z,22.3
2018-07-13T09:31:16.201Z,22.29
2018-07-13T09:32:16.050Z,22.3
2018-07-13T09:33:16.165Z,22.3
2018-07-13T09:34:16.012Z,22.3
2018-07-13T09:35:16.228Z,22.29
2018-07-13T09:36:16.377Z,22.29
2018-07-13T09:37:16.067Z,22.29
2018-07-13T09:38:16.271Z,22.29
2018-07-13T09:39:16.197Z,22.3
2018-07-13T09:40:16.195Z,22.28
2018-07-13T09:41:16.151Z,22.25
2018-07-13T09:42:16.297Z,22.28
2018-07-13T09:43:16.215Z,22.29
2018-07-13T09:44:16.111Z,22.32
2018-07-13T09:45:15.961Z,22.34
2018-07-13T09:46:16.064Z,22.35
2018-07-13T09:47:16.099Z,22.35
2018-07-13T09:48:16.114Z,22.37
2018-07-13T09:49:16.132Z,22.38
2018-07-13T09:50:16.174Z,22.33
2018-07-13T09:51:16.178Z,22.35
2018-07-13T09:52:16.181Z,22.36
2018-07-13T09:53:16.108Z,22.36
2018-07-13T09:54:16.102Z,22.37
2018-07-13T09:55:16.252Z,22.36
2018-07-13T09:56:16.251Z,22.35
2018-07-13T09:57:16.105Z,22.36
2018-07-13T09:58:16.078Z,22.37
2018-07-13T09:59:16.224Z,22.37
2018-07-13T10:00:16.145Z,22.39
2018-07-13T10:01:16.115Z,22.37
2018-07-13T10:02:16.079Z,22.38
2018-07-13T10:03:16.066Z,22.38
2018-07-13T10:04:16.038Z,22.37
2018-07-13T10:05:16.017Z,22.38
2018-07-13T10:06:16.236Z,22.37
2018-07-13T10:07:16.411Z,22.38
2018-07-13T10:08:16.284Z,22.39
2018-07-13T10:09:16.248Z,22.38
2018-07-13T10:10:16.019Z,22.38
2018-07-13T10:11:16.091Z,22.4
2018-07-13T10:12:16.047Z,22.39
2018-07-13T10:13:16.278Z,22.38
2018-07-13T10:14:16.114Z,22.38
2018-07-13T10:15:16.130Z,22.38
2018-07-13T10:16:16.250Z,22.38
2018-07-13T10:17:16.336Z,22.39
2018-07-13T10:18:16.159Z,22.39
2018-07-13T10:19:16.120Z,22.39
2018-07-13T10:20:16.148Z,22.39
2018-07-13T10:21:16.053Z,22.39
2018-07-13T10:22:16.500Z,22.38
2018-07-13T10:23:16.079Z,22.39
2018-07-13T10:24:16.719Z,22.39
2018-07-13T10:25:16.187Z,22.37
2018-07-13T10:26:16.175Z,22.4
2018-07-13T10:27:16.254Z,22.4
2018-07-13T10:28:16.272Z,22.4
2018-07-13T10:29:16.362Z,22.39
2018-07-13T10:30:15.976Z,22.4
2018-07-13T10:31:16.802Z,22.4
2018-07-13T10:32:15.932Z,22.4
2018-07-13T10:33:16.077Z,22.39
2018-07-13T10:34:16.135Z,22.38
2018-07-13T10:35:15.967Z,22.4
2018-07-13T10:36:16.294Z,22.39
2018-07-13T10:37:16.000Z,22.38
2018-07-13T10:38:16.095Z,22.38
2018-07-13T10:39:16.042Z,22.38
2018-07-13T10:40:16.186Z,22.37
2018-07-13T10:41:16.093Z,22.39
2018-07-13T10:42:16.102Z,22.39
2018-07-13T10:43:16.358Z,22.37
2018-07-13T10:44:16.349Z,22.37
2018-07-13T10:45:16.008Z,22.38
2018-07-13T10:46:16.141Z,22.37
2018-07-13T10:47:16.045Z,22.37
2018-07-13T10:48:16.026Z,22.38
2018-07-13T10:49:16.032Z,22.37
2018-07-13T10:50:16.082Z,22.37
2018-07-13T10:51:16.214Z,22.38
2018-07-13T10:52:16.263Z,22.36
2018-07-13T10:53:16.030Z,22.37
2018-07-13T10:54:16.042Z,22.37
2018-07-13T10:55:16.156Z,22.37
2018-07-13T10:56:16.181Z,22.36
2018-07-13T10:57:16.004Z,22.37
2018-07-13T10:58:16.002Z,22.37
2018-07-13T10:59:16.079Z,22.37
2018-07-13T11:00:16.140Z,22.36
2018-07-13T11:01:16.175Z,22.36
2018-07-13T11:02:16.211Z,22.36
2018-07-13T11:03:16.169Z,22.35
2018-07-13T11:04:16.071Z,22.36
2018-07-13T11:05:16.067Z,22.36
2018-07-13T11:06:15.988Z,22.36
2018-07-13T11:07:16.058Z,22.36
2018-07-13T11:08:16.075Z,22.36
2018-07-13T11:09:16.084Z,22.36
2018-07-13T11:10:16.124Z,22.35
2018-07-13T11:11:16.217Z,22.36
2018-07-13T11:12:16.128Z,22.36
2018-07-13T11:13:16.177Z,22.36
2018-07-13T11:14:15.959Z,22.36
2018-07-13T11:15:15.931Z,22.36
2018-07-13T11:16:16.300Z,22.35
2018-07-13T11:17:16.158Z,22.36
2018-07-13T11:18:16.313Z,22.35
2018-07-13T11:19:16.251Z,22.36
2018-07-13T11:20:16.169Z,22.36
2018-07-13T11:21:19.166Z,22.37
2018-07-13T11:22:16.091Z,22.35
2018-07-13T11:23:16.157Z,22.35
2018-07-13T11:24:16.021Z,22.35
2018-07-13T11:25:16.151Z,22.35
2018-07-13T11:26:15.995Z,22.35
2018-07-13T11:27:16.293Z,22.35
2018-07-13T11:28:16.076Z,22.35
2018-07-13T11:29:16.218Z,22.36
2018-07-13T11:30:16.135Z,22.36
2018-07-13T11:31:16.784Z,22.35
2018-07-13T11:32:17.814Z,22.35
2018-07-13T11:33:16.118Z,22.35
2018-07-13T11:34:16.168Z,22.35
2018-07-13T11:35:16.289Z,22.36
2018-07-13T11:36:16.390Z,22.35
2018-07-13T11:37:16.560Z,22.35
2018-07-13T11:38:16.123Z,22.35
2018-07-13T11:39:16.059Z,22.35
2018-07-13T11:40:15.926Z,22.35
2018-07-13T11:41:16.288Z,22.36
2018-07-13T11:42:16.206Z,22.35
2018-07-13T11:43:16.057Z,22.35
2018-07-13T11:44:16.106Z,22.35
2018-07-13T11:45:16.335Z,22.35
2018-07-13T11:46:16.351Z,22.35
2018-07-13T11:47:16.211Z,22.36
2018-07-13T11:48:16.096Z,22.35
2018-07-13T11:49:16.323Z,22.35
2018-07-13T11:50:16.118Z,22.36
2018-07-13T11:51:16.077Z,22.35
2018-07-13T11:52:16.096Z,22.35
2018-07-13T11:53:16.030Z,22.35
2018-07-13T11:54:16.224Z,22.35
2018-07-13T11:55:16.255Z,22.35
2018-07-13T11:56:16.081Z,22.35
2018-07-13T11:57:16.117Z,22.35
2018-07-13T11:58:16.323Z,22.35
2018-07-13T11:59:16.166Z,22.36
2018-07-13T12:00:16.093Z,22.36
2018-07-13T12:01:16.246Z,22.35
2018-07-13T12:02:15.967Z,22.35
2018-07-13T12:03:16.154Z,22.36
2018-07-13T12:04:16.074Z,22.35
2018-07-13T12:05:16.178Z,22.34
2018-07-13T12:06:16.307Z,22.35
2018-07-13T12:07:16.265Z,22.35
2018-07-13T12:08:16.143Z,22.35
2018-07-13T12:09:16.085Z,22.35
2018-07-13T12:10:16.196Z,22.34
2018-07-13T12:11:15.994Z,22.35
2018-07-13T12:12:16.217Z,22.35
2018-07-13T12:13:16.052Z,22.35
2018-07-13T12:14:16.151Z,22.35
2018-07-13T12:15:16.074Z,22.35
2018-07-13T12:16:16.196Z,22.35
2018-07-13T12:17:16.185Z,22.35
2018-07-13T12:18:16.131Z,22.35
2018-07-13T12:19:16.112Z,22.35
2018-07-13T12:20:15.935Z,22.35
2018-07-13T12:21:16.114Z,22.35
2018-07-13T12:22:16.286Z,22.35
2018-07-13T12:23:16.146Z,22.35
2018-07-13T12:24:16.112Z,22.35
2018-07-13T12:25:16.166Z,22.35
2018-07-13T12:26:16.096Z,22.35
2018-07-13T12:27:16.241Z,22.34
2018-07-13T12:28:16.147Z,22.35
2018-07-13T12:29:16.155Z,22.35
2018-07-13T12:30:16.256Z,22.36
2018-07-13T12:31:16.010Z,22.36
2018-07-13T12:32:16.572Z,22.35
2018-07-13T12:33:16.315Z,22.35
2018-07-13T12:34:16.225Z,22.35
2018-07-13T12:35:16.025Z,22.36
2018-07-13T12:36:16.218Z,22.35
2018-07-13T12:37:15.988Z,22.35
2018-07-13T12:38:15.931Z,22.35
2018-07-13T12:39:16.172Z,22.36
2018-07-13T12:40:16.051Z,22.36
2018-07-13T12:41:16.091Z,22.37
2018-07-13T12:42:16.561Z,22.39
2018-07-13T12:43:16.149Z,22.38
2018-07-13T12:44:16.196Z,22.38
2018-07-13T12:45:16.150Z,22.35
2018-07-13T12:46:16.084Z,22.38
2018-07-13T12:47:16.290Z,22.39
2018-07-13T12:48:16.081Z,22.41
2018-07-13T12:49:26.032Z,22.41
2018-07-13T12:50:16.233Z,22.42
2018-07-13T12:51:16.131Z,22.42
2018-07-13T12:52:16.138Z,22.44
2018-07-13T12:53:16.045Z,22.44
2018-07-13T12:54:16.406Z,22.41
2018-07-13T12:55:16.333Z,22.44
2018-07-13T12:56:16.074Z,22.42